createdAt,value
2022-12-13T00:01:47.841Z,6.18
2022-12-13T00:04:16.279Z,6.18
2022-12-13T00:06:44.753Z,6.00
2022-12-13T00:09:16.004Z,5.53
2022-12-13T00:11:44.564Z,6.65
2022-12-13T00:14:14.185Z,5.13
2022-12-13T00:16:46.773Z,6.05
2022-12-13T00:19:15.810Z,6.13
2022-12-13T00:21:43.977Z,6.15
2022-12-13T00:24:12.278Z,6.60
2022-12-13T00:26:41.934Z,6.65
2022-12-13T00:29:10.978Z,6.38
2022-12-13T00:34:28.479Z,6.15
2022-12-13T00:36:59.054Z,6.18
2022-12-13T00:39:27.580Z,6.15
2022-12-13T00:41:57.378Z,5.90
2022-12-13T00:44:25.720Z,6.22
2022-12-13T00:46:53.954Z,7.28
2022-12-13T00:49:22.386Z,6.40
2022-12-13T00:51:51.001Z,7.18
2022-12-13T00:54:19.369Z,7.68
2022-12-13T00:56:47.694Z,6.38
2022-12-13T00:59:17.408Z,6.80
2022-12-13T01:01:46.960Z,6.15
2022-12-13T01:04:15.331Z,7.45
2022-12-13T01:06:45.224Z,6.97
2022-12-13T01:09:18.288Z,8.05
2022-12-13T01:11:47.249Z,6.80
2022-12-13T01:14:15.558Z,7.20
2022-12-13T01:16:45.153Z,7.65
2022-12-13T01:19:13.408Z,6.32
2022-12-13T01:21:41.625Z,7.05
2022-12-13T01:24:12.345Z,6.75
2022-12-13T01:26:40.555Z,7.50
2022-12-13T01:29:11.346Z,7.75
2022-12-13T01:31:41.725Z,6.30
2022-12-13T01:34:12.980Z,7.43
2022-12-13T01:36:43.768Z,8.07
2022-12-13T01:39:15.596Z,7.70
2022-12-13T01:41:45.384Z,7.93
2022-12-13T01:44:50.799Z,6.82
2022-12-13T01:47:23.968Z,8.52
2022-12-13T01:49:56.047Z,6.35
2022-12-13T01:52:30.463Z,7.10
2022-12-13T01:55:03.775Z,7.72
2022-12-13T01:57:47.905Z,7.47
2022-12-13T02:00:17.827Z,7.85
2022-12-13T02:02:47.972Z,7.65
2022-12-13T02:05:26.497Z,7.93
2022-12-13T02:07:55.245Z,7.15
2022-12-13T02:10:23.533Z,7.03
2022-12-13T02:12:51.916Z,8.05
2022-12-13T02:15:21.299Z,6.80
2022-12-13T02:18:03.138Z,8.80
2022-12-13T02:21:07.047Z,7.72
2022-12-13T02:24:14.020Z,8.00
2022-12-13T02:26:50.788Z,9.25
2022-12-13T02:29:48.436Z,8.13
2022-12-13T02:32:28.259Z,7.60
2022-12-13T02:35:03.720Z,8.18
2022-12-13T02:37:40.488Z,8.52
2022-12-13T02:40:14.735Z,9.07
2022-12-13T02:42:50.970Z,8.18
2022-12-13T02:45:24.870Z,6.45
2022-12-13T02:47:58.606Z,8.82
2022-12-13T02:50:28.863Z,8.57
2022-12-13T02:52:57.400Z,9.35
2022-12-13T02:55:28.472Z,9.75
2022-12-13T02:57:56.857Z,9.90
2022-12-13T03:00:33.581Z,8.88
2022-12-13T03:03:19.225Z,8.80
2022-12-13T03:06:09.050Z,8.02
2022-12-13T03:08:48.866Z,10.35
2022-12-13T03:11:20.520Z,7.60
2022-12-13T03:13:53.278Z,8.38
2022-12-13T03:16:36.655Z,10.55
2022-12-13T03:19:08.845Z,13.60
2022-12-13T03:21:47.013Z,12.77
2022-12-13T03:24:18.928Z,10.73
2022-12-13T03:26:48.480Z,10.02
2022-12-13T03:29:23.835Z,9.88
2022-12-13T03:31:53.543Z,8.95
2022-12-13T03:34:23.455Z,9.10
2022-12-13T03:36:52.396Z,9.15
2022-12-13T03:39:21.674Z,9.60
2022-12-13T03:41:50.369Z,10.55
2022-12-13T03:44:18.906Z,9.95
2022-12-13T03:46:47.198Z,10.40
2022-12-13T03:49:17.371Z,11.52
2022-12-13T03:51:47.917Z,8.68
2022-12-13T03:54:16.249Z,10.13
2022-12-13T03:56:44.462Z,10.27
2022-12-13T03:59:12.665Z,9.18
2022-12-13T04:01:40.908Z,9.95
2022-12-13T04:04:09.239Z,9.30
2022-12-13T04:06:37.517Z,8.73
2022-12-13T04:09:07.141Z,9.77
2022-12-13T04:11:52.339Z,10.63
2022-12-13T04:14:22.374Z,9.77
2022-12-13T04:16:52.269Z,10.10
2022-12-13T04:19:23.851Z,10.05
2022-12-13T04:21:54.215Z,11.20
2022-12-13T04:24:30.819Z,10.43
2022-12-13T04:27:00.701Z,9.50
2022-12-13T04:29:33.814Z,9.93
2022-12-13T04:32:03.666Z,10.23
2022-12-13T04:34:37.110Z,11.13
2022-12-13T04:37:06.238Z,12.52
2022-12-13T04:39:36.181Z,12.30
2022-12-13T04:42:04.832Z,12.05
2022-12-13T04:44:36.789Z,14.20
2022-12-13T04:47:05.985Z,14.63
2022-12-13T04:49:34.656Z,14.10
2022-12-13T04:52:03.623Z,10.40
2022-12-13T04:54:36.674Z,11.45
2022-12-13T04:57:10.247Z,10.70
2022-12-13T04:59:39.227Z,11.43
2022-12-13T05:02:08.931Z,10.98
2022-12-13T05:04:37.384Z,13.18
2022-12-13T05:07:05.708Z,11.35
2022-12-13T05:09:33.914Z,10.88
2022-12-13T05:12:02.380Z,11.63
2022-12-13T05:14:32.818Z,12.70
2022-12-13T05:17:01.364Z,11.27
2022-12-13T05:19:31.418Z,11.00
2022-12-13T05:22:01.597Z,12.30
2022-12-13T05:24:31.528Z,11.48
2022-12-13T05:27:00.177Z,11.80
2022-12-13T05:29:28.448Z,11.95
2022-12-13T05:31:58.102Z,11.90
2022-12-13T05:34:26.687Z,12.00
2022-12-13T05:36:54.917Z,13.55
2022-12-13T05:39:28.362Z,10.73
2022-12-13T05:42:02.049Z,11.23
2022-12-13T05:44:32.667Z,10.77
2022-12-13T05:47:03.108Z,11.73
2022-12-13T05:49:32.516Z,9.63
2022-12-13T05:52:00.871Z,12.40
2022-12-13T05:54:29.393Z,11.90
2022-12-13T05:56:57.967Z,11.20
2022-12-13T05:59:26.265Z,12.68
2022-12-13T06:01:54.625Z,10.95
2022-12-13T06:04:24.278Z,11.30
2022-12-13T06:06:53.573Z,11.93
2022-12-13T06:09:22.638Z,12.23
2022-12-13T06:11:51.435Z,12.77
2022-12-13T06:14:22.567Z,12.55
2022-12-13T06:16:53.015Z,12.77
2022-12-13T06:19:22.175Z,14.15
2022-12-13T06:21:53.879Z,11.45
2022-12-13T06:24:24.018Z,11.90
2022-12-13T06:26:52.872Z,12.00
2022-12-13T06:29:25.577Z,12.02
2022-12-13T06:32:02.417Z,13.30
2022-12-13T06:34:33.464Z,12.27
2022-12-13T06:37:05.818Z,13.70
2022-12-13T06:39:34.171Z,11.02
2022-12-13T06:42:06.202Z,11.52
2022-12-13T06:44:35.222Z,12.93
2022-12-13T06:47:12.092Z,13.82
2022-12-13T06:49:44.827Z,13.77
2022-12-13T06:52:15.858Z,11.60
2022-12-13T06:54:45.056Z,13.07
2022-12-13T06:57:14.279Z,12.88
2022-12-13T06:59:43.024Z,13.00
2022-12-13T07:02:15.309Z,13.63
2022-12-13T07:04:55.309Z,13.57
2022-12-13T07:07:25.778Z,12.45
2022-12-13T07:09:54.382Z,14.55
2022-12-13T07:12:23.153Z,15.20
2022-12-13T07:14:51.443Z,14.43
2022-12-13T07:17:32.816Z,11.75
2022-12-13T07:20:09.231Z,14.55
2022-12-13T07:22:46.767Z,14.40
2022-12-13T07:25:26.809Z,15.10
2022-12-13T07:28:01.380Z,13.85
2022-12-13T07:30:31.658Z,14.15
2022-12-13T07:33:00.108Z,15.00
2022-12-13T07:35:28.299Z,14.00
2022-12-13T07:37:58.170Z,13.30
2022-12-13T07:40:27.082Z,15.43
2022-12-13T07:42:57.036Z,15.38
2022-12-13T07:45:26.651Z,13.82
2022-12-13T07:47:54.991Z,14.70
2022-12-13T07:50:24.654Z,15.70
2022-12-13T07:52:53.955Z,14.95
2022-12-13T07:55:33.170Z,16.55
2022-12-13T07:58:11.831Z,18.67
2022-12-13T08:00:41.332Z,16.45
2022-12-13T08:03:24.998Z,14.70
2022-12-13T08:06:00.707Z,14.98
2022-12-13T08:08:31.561Z,18.17
2022-12-13T08:11:04.916Z,25.95
2022-12-13T08:13:33.409Z,16.70
2022-12-13T08:16:02.344Z,17.77
2022-12-13T08:18:30.992Z,19.52
2022-12-13T08:21:00.508Z,16.63
2022-12-13T08:23:31.235Z,15.40
2022-12-13T08:25:59.724Z,17.45
2022-12-13T08:28:30.531Z,13.52
2022-12-13T08:31:04.889Z,11.93
2022-12-13T08:33:34.167Z,11.02
2022-12-13T08:36:10.090Z,12.25
2022-12-13T08:38:38.492Z,14.73
2022-12-13T08:41:07.645Z,11.38
2022-12-13T08:43:37.697Z,11.48
2022-12-13T08:46:06.130Z,10.65
2022-12-13T08:48:34.957Z,11.40
2022-12-13T08:51:14.896Z,10.80
2022-12-13T08:53:53.338Z,10.65
2022-12-13T08:56:39.428Z,10.05
2022-12-13T08:59:15.943Z,10.05
2022-12-13T09:01:44.417Z,11.73
2022-12-13T09:04:12.665Z,12.93
2022-12-13T09:06:43.081Z,10.13
2022-12-13T09:09:11.969Z,10.77
2022-12-13T09:11:41.507Z,9.13
2022-12-13T09:14:14.074Z,9.02
2022-12-13T09:16:50.556Z,9.38
2022-12-13T09:19:25.832Z,9.85
2022-12-13T09:22:02.678Z,7.00
2022-12-13T09:24:35.729Z,7.63
2022-12-13T09:27:09.702Z,6.88
2022-12-13T09:29:38.596Z,7.00
2022-12-13T09:32:08.327Z,6.88
2022-12-13T09:34:36.658Z,7.65
2022-12-13T09:37:07.308Z,9.02
2022-12-13T09:39:35.543Z,9.30
2022-12-13T09:42:10.703Z,10.02
2022-12-13T09:44:49.734Z,8.93
2022-12-13T09:47:35.303Z,10.30
2022-12-13T09:50:08.169Z,8.77
2022-12-13T09:52:46.784Z,8.75
2022-12-13T09:55:23.622Z,13.98
2022-12-13T09:57:52.822Z,9.98
2022-12-13T10:00:23.483Z,8.65
2022-12-13T10:02:55.178Z,8.93
2022-12-13T10:05:34.402Z,7.80
2022-12-13T10:08:10.158Z,8.10
2022-12-13T10:10:39.228Z,8.35
2022-12-13T10:13:17.862Z,9.52
2022-12-13T10:15:51.665Z,8.32
2022-12-13T10:18:28.355Z,9.85
2022-12-13T10:20:57.533Z,9.60
2022-12-13T10:23:47.094Z,9.38
2022-12-13T10:26:24.311Z,10.93
2022-12-13T10:29:04.122Z,8.60
2022-12-13T10:31:41.557Z,9.68
2022-12-13T10:34:22.439Z,9.40
2022-12-13T10:36:51.082Z,8.40
2022-12-13T10:39:36.898Z,10.70
2022-12-13T10:42:06.425Z,9.90
2022-12-13T10:44:34.785Z,9.90
2022-12-13T10:47:16.903Z,9.90
2022-12-13T10:49:58.782Z,9.30
2022-12-13T10:52:31.916Z,7.63
2022-12-13T10:55:04.637Z,8.00
2022-12-13T10:57:53.538Z,6.75
2022-12-13T11:00:39.800Z,7.80
2022-12-13T11:03:09.282Z,9.93
2022-12-13T11:05:40.620Z,7.85
2022-12-13T11:08:21.850Z,8.32
2022-12-13T11:10:59.470Z,8.55
2022-12-13T11:13:38.516Z,7.80
2022-12-13T11:16:21.651Z,6.80
2022-12-13T11:18:54.171Z,7.00
2022-12-13T11:21:27.734Z,8.30
2022-12-13T11:24:01.567Z,8.07
2022-12-13T11:26:33.696Z,6.40
2022-12-13T11:29:12.499Z,7.28
2022-12-13T11:31:52.344Z,8.20
2022-12-13T11:34:28.203Z,8.35
2022-12-13T11:37:06.605Z,7.55
2022-12-13T11:39:38.895Z,8.60
2022-12-13T11:42:14.740Z,9.65
2022-12-13T11:44:50.959Z,7.70
2022-12-13T11:47:26.475Z,6.78
2022-12-13T11:49:55.463Z,8.43
2022-12-13T11:52:28.751Z,9.20
2022-12-13T11:55:01.892Z,9.57
2022-12-13T11:57:44.089Z,9.43
2022-12-13T12:00:34.060Z,8.75
2022-12-13T12:03:19.639Z,11.32
2022-12-13T12:05:56.019Z,10.25
2022-12-13T12:08:34.411Z,8.95
2022-12-13T12:11:13.322Z,9.10
2022-12-13T12:13:51.481Z,9.05
2022-12-13T12:16:34.131Z,10.30
2022-12-13T12:19:02.799Z,10.63
2022-12-13T12:24:40.214Z,11.25
2022-12-13T12:27:23.989Z,12.77
2022-12-13T12:30:08.640Z,8.70
2022-12-13T12:32:45.641Z,7.78
2022-12-13T12:35:30.963Z,8.45
2022-12-13T12:38:11.725Z,7.20
2022-12-13T12:41:16.529Z,6.10
2022-12-13T12:43:49.338Z,6.55
2022-12-13T12:47:09.095Z,7.93
2022-12-13T12:49:52.290Z,9.30
2022-12-13T12:52:29.879Z,9.75
2022-12-13T12:55:11.907Z,8.63
2022-12-13T12:57:55.728Z,10.10
2022-12-13T13:00:31.796Z,7.70
2022-12-13T13:03:18.850Z,10.35
2022-12-13T13:05:57.078Z,9.38
2022-12-13T13:08:36.923Z,9.68
2022-12-13T13:11:23.891Z,9.88
2022-12-13T13:14:28.662Z,10.70
2022-12-13T13:16:57.444Z,11.00
2022-12-13T13:19:48.304Z,12.68
2022-12-13T13:22:34.915Z,11.48
2022-12-13T13:25:23.778Z,10.05
2022-12-13T13:27:52.869Z,10.55
2022-12-13T13:30:24.455Z,10.93
2022-12-13T13:32:54.335Z,11.82
2022-12-13T13:35:56.009Z,12.10
2022-12-13T13:38:48.960Z,10.60
2022-12-13T13:41:56.907Z,12.00
2022-12-13T13:44:50.369Z,12.02
2022-12-13T13:47:36.811Z,9.23
2022-12-13T13:50:23.298Z,9.02
2022-12-13T13:53:03.229Z,10.63
2022-12-13T13:55:48.850Z,10.70
2022-12-13T13:59:08.943Z,8.90
2022-12-13T14:02:08.210Z,9.13
2022-12-13T14:04:58.040Z,11.40
2022-12-13T14:07:50.043Z,14.48
2022-12-13T14:10:38.326Z,11.80
2022-12-13T14:13:44.473Z,12.95
2022-12-13T14:16:46.576Z,13.70
2022-12-13T14:19:56.073Z,13.35
2022-12-13T14:22:35.008Z,11.52
2022-12-13T14:25:46.445Z,14.88
2022-12-13T14:28:29.118Z,13.90
2022-12-13T14:30:58.023Z,14.35
2022-12-13T14:33:28.319Z,12.90
2022-12-13T14:35:59.430Z,15.38
2022-12-13T14:38:31.666Z,13.73
2022-12-13T14:41:01.537Z,14.10
2022-12-13T14:43:31.407Z,16.00
2022-12-13T14:46:01.741Z,15.93
2022-12-13T14:48:32.335Z,15.85
2022-12-13T14:51:00.618Z,17.27
2022-12-13T14:53:34.626Z,16.52
2022-12-13T14:56:09.817Z,16.60
2022-12-13T14:58:39.566Z,15.05
2022-12-13T15:01:23.842Z,16.70
2022-12-13T15:04:19.389Z,19.08
2022-12-13T15:06:50.159Z,16.67
2022-12-13T15:09:19.929Z,17.13
2022-12-13T15:11:48.547Z,14.82
2022-12-13T15:14:19.676Z,17.50
2022-12-13T15:16:53.112Z,19.50
2022-12-13T15:19:31.426Z,21.75
2022-12-13T15:22:09.016Z,24.75
2022-12-13T15:24:48.697Z,24.58
2022-12-13T15:27:24.658Z,25.92
2022-12-13T15:29:54.471Z,26.35
2022-12-13T15:32:24.250Z,21.20
2022-12-13T15:34:53.206Z,21.40
2022-12-13T15:37:28.599Z,17.95
2022-12-13T15:40:02.779Z,19.83
2022-12-13T15:42:34.519Z,25.63
2022-12-13T15:45:05.818Z,26.15
2022-12-13T15:47:34.387Z,27.20
2022-12-13T15:50:04.784Z,28.25
2022-12-13T15:52:36.110Z,31.95
2022-12-13T15:55:28.591Z,30.88
2022-12-13T15:57:58.784Z,32.80
2022-12-13T16:00:31.630Z,28.23
2022-12-13T16:03:09.872Z,26.50
2022-12-13T16:05:41.903Z,26.42
2022-12-13T16:08:27.369Z,26.02
2022-12-13T16:10:58.326Z,23.77
2022-12-13T16:13:28.611Z,27.10
2022-12-13T16:16:00.321Z,27.48
2022-12-13T16:18:46.060Z,29.85
2022-12-13T16:21:15.343Z,30.10
2022-12-13T16:23:48.659Z,29.27
2022-12-13T16:26:23.893Z,29.75
2022-12-13T16:28:52.203Z,29.50
2022-12-13T16:31:22.508Z,29.00
2022-12-13T16:33:50.915Z,28.63
2022-12-13T16:36:19.321Z,29.45
2022-12-13T16:38:47.545Z,28.67
2022-12-13T16:41:16.439Z,27.83
2022-12-13T16:43:54.472Z,27.80
2022-12-13T16:47:16.739Z,27.88
2022-12-13T16:49:21.181Z,27.60
2022-12-13T16:51:49.953Z,27.77
2022-12-13T16:54:19.566Z,29.20
2022-12-13T16:56:48.223Z,28.17
2022-12-13T16:59:19.512Z,27.73
2022-12-13T17:01:48.772Z,29.90
2022-12-13T17:04:21.464Z,36.50
2022-12-13T17:06:50.731Z,43.53
2022-12-13T17:09:19.387Z,49.15
2022-12-13T17:11:47.650Z,50.75
2022-12-13T17:14:17.314Z,49.72
2022-12-13T17:16:45.489Z,44.65
2022-12-13T17:19:15.748Z,41.50
2022-12-13T17:21:44.144Z,39.38
2022-12-13T17:24:12.681Z,35.45
2022-12-13T17:26:41.179Z,35.72
2022-12-13T17:29:25.639Z,32.15
2022-12-13T17:31:54.367Z,30.15
2022-12-13T17:34:22.913Z,26.63
2022-12-13T17:36:51.217Z,26.23
2022-12-13T17:39:19.626Z,29.25
2022-12-13T17:41:55.191Z,31.08
2022-12-13T17:44:26.515Z,35.45
2022-12-13T17:46:55.838Z,35.83
2022-12-13T17:49:25.084Z,35.22
2022-12-13T17:51:54.094Z,31.58
2022-12-13T17:54:23.886Z,32.22
2022-12-13T17:56:52.769Z,32.05
2022-12-13T17:59:21.130Z,33.55
2022-12-13T18:01:51.396Z,35.80
2022-12-13T18:04:20.058Z,36.25
2022-12-13T18:06:48.511Z,37.67
2022-12-13T18:09:16.684Z,36.85
2022-12-13T18:11:44.811Z,35.65
2022-12-13T18:14:13.164Z,36.65
2022-12-13T18:16:41.670Z,38.53
2022-12-13T18:19:13.429Z,36.20
2022-12-13T18:21:43.167Z,38.08
2022-12-13T18:24:12.521Z,33.60
2022-12-13T18:26:40.704Z,35.85
2022-12-13T18:29:08.916Z,34.67
2022-12-13T18:31:37.370Z,33.45
2022-12-13T18:34:07.430Z,30.95
2022-12-13T18:36:37.390Z,32.42
2022-12-13T18:39:05.779Z,30.42
2022-12-13T18:41:33.962Z,27.80
2022-12-13T18:44:03.854Z,27.17
2022-12-13T18:46:35.785Z,30.85
2022-12-13T18:49:05.963Z,28.10
2022-12-13T18:51:35.119Z,27.13
2022-12-13T18:54:04.945Z,27.60
2022-12-13T18:56:33.263Z,29.77
2022-12-13T18:59:01.528Z,29.67
2022-12-13T19:01:30.655Z,31.85
2022-12-13T19:03:59.195Z,31.10
2022-12-13T19:06:28.951Z,29.65
2022-12-13T19:08:58.895Z,30.77
2022-12-13T19:11:29.666Z,29.40
2022-12-13T19:13:58.258Z,28.98
2022-12-13T19:16:26.905Z,30.98
2022-12-13T19:18:55.273Z,26.00
2022-12-13T19:21:23.930Z,31.23
2022-12-13T19:23:57.553Z,28.95
2022-12-13T19:26:26.684Z,30.67
2022-12-13T19:28:57.240Z,25.70
2022-12-13T19:31:31.172Z,26.88
2022-12-13T19:34:02.337Z,25.40
2022-12-13T19:36:31.493Z,23.88
2022-12-13T19:38:59.890Z,21.27
2022-12-13T19:41:28.241Z,23.38
2022-12-13T19:43:57.925Z,21.88
2022-12-13T19:46:26.486Z,23.25
2022-12-13T19:48:54.873Z,25.05
2022-12-13T19:51:23.127Z,22.35
2022-12-13T19:53:51.831Z,21.85
2022-12-13T19:56:22.673Z,21.75
2022-12-13T19:58:51.868Z,23.70
2022-12-13T20:01:21.660Z,21.65
2022-12-13T20:03:50.058Z,20.85
2022-12-13T20:06:22.154Z,20.73
2022-12-13T20:08:51.116Z,22.13
2022-12-13T20:11:21.673Z,20.58
2022-12-13T20:13:51.459Z,20.13
2022-12-13T20:16:23.112Z,22.52
2022-12-13T20:18:55.681Z,20.45
2022-12-13T20:21:24.618Z,20.55
2022-12-13T20:23:53.382Z,19.45
2022-12-13T20:26:24.348Z,19.10
2022-12-13T20:28:52.750Z,18.90
2022-12-13T20:31:25.024Z,18.90
2022-12-13T20:33:55.938Z,19.95
2022-12-13T20:36:26.504Z,20.15
2022-12-13T20:38:56.479Z,20.23
2022-12-13T20:41:26.223Z,21.42
2022-12-13T20:43:55.528Z,21.00
2022-12-13T20:46:26.529Z,19.85
2022-12-13T20:48:56.164Z,21.63
2022-12-13T20:51:26.571Z,24.52
2022-12-13T20:53:55.826Z,26.52
2022-12-13T20:56:26.273Z,27.40
2022-12-13T20:58:54.454Z,27.60
2022-12-13T21:01:26.049Z,24.08
2022-12-13T21:03:55.758Z,25.77
2022-12-13T21:06:24.120Z,26.75
2022-12-13T21:08:52.413Z,26.05
2022-12-13T21:11:28.874Z,27.17
2022-12-13T21:14:05.329Z,28.23
2022-12-13T21:16:40.697Z,27.17
2022-12-13T21:19:13.655Z,31.30
2022-12-13T21:21:42.144Z,28.40
2022-12-13T21:24:12.328Z,27.92
2022-12-13T21:26:40.589Z,27.23
2022-12-13T21:29:11.076Z,26.35
2022-12-13T21:31:42.987Z,25.13
2022-12-13T21:34:13.445Z,24.23
2022-12-13T21:36:43.627Z,22.98
2022-12-13T21:39:14.362Z,23.63
2022-12-13T21:41:45.026Z,24.10
2022-12-13T21:44:15.065Z,23.38
2022-12-13T21:47:11.449Z,28.30
2022-12-13T21:49:33.240Z,25.90
2022-12-13T21:52:01.479Z,26.63
2022-12-13T21:54:29.685Z,25.70
2022-12-13T21:57:15.166Z,24.77
2022-12-13T21:59:43.943Z,25.73
2022-12-13T22:02:16.866Z,24.50
2022-12-13T22:04:47.447Z,24.25
2022-12-13T22:07:18.733Z,25.52
2022-12-13T22:09:48.092Z,24.92
2022-12-13T22:12:22.287Z,26.98
2022-12-13T22:14:51.055Z,24.75
2022-12-13T22:17:31.034Z,26.38
2022-12-13T22:20:02.202Z,24.67
2022-12-13T22:22:30.756Z,26.55
2022-12-13T22:24:58.970Z,25.58
2022-12-13T22:27:27.469Z,25.95
2022-12-13T22:29:57.715Z,26.17
2022-12-13T22:32:29.139Z,27.10
2022-12-13T22:34:57.980Z,26.10
2022-12-13T22:37:26.650Z,25.48
2022-12-13T22:39:54.937Z,25.80
2022-12-13T22:42:23.250Z,26.15
2022-12-13T22:44:51.467Z,25.23
2022-12-13T22:47:20.749Z,24.80
2022-12-13T22:49:50.431Z,28.58
2022-12-13T22:52:18.815Z,27.90
2022-12-13T22:54:47.101Z,27.38
2022-12-13T22:57:15.408Z,28.35
2022-12-13T22:59:43.545Z,27.75
2022-12-13T23:02:12.740Z,28.30
2022-12-13T23:04:41.177Z,31.15
2022-12-13T23:07:10.904Z,31.63
2022-12-13T23:09:39.126Z,29.45
2022-12-13T23:12:25.127Z,33.42
2022-12-13T23:14:53.388Z,32.88
2022-12-13T23:17:21.499Z,32.25
2022-12-13T23:19:53.422Z,34.03
2022-12-13T23:22:25.851Z,33.10
2022-12-13T23:24:54.682Z,32.53
2022-12-13T23:27:24.649Z,31.58
2022-12-13T23:29:52.886Z,31.65
2022-12-13T23:32:21.155Z,30.50
2022-12-13T23:34:49.375Z,27.60
2022-12-13T23:37:17.530Z,32.50
2022-12-13T23:39:47.162Z,31.25
2022-12-13T23:42:15.461Z,27.77
2022-12-13T23:44:43.641Z,28.27
2022-12-13T23:47:11.884Z,29.58
2022-12-13T23:49:40.073Z,26.77
2022-12-13T23:52:08.284Z,27.30
2022-12-13T23:54:36.503Z,28.77
2022-12-13T23:57:06.365Z,27.88
2022-12-13T23:59:34.761Z,27.83
